sensor_id;sensor_type;location;lat;lon;timestamp;P1;durP1;ratioP1;P2;durP2;ratioP2
37483;SDS011;23337;52.212;9.926;2023-03-14T00:01:43;2.30;;;0.90;;
37483;SDS011;23337;52.212;9.926;2023-03-14T00:04:10;2.50;;;1.07;;
37483;SDS011;23337;52.212;9.926;2023-03-14T00:06:36;2.83;;;1.07;;
37483;SDS011;23337;52.212;9.926;2023-03-14T00:09:02;2.97;;;0.97;;
37483;SDS011;23337;52.212;9.926;2023-03-14T00:11:28;1.67;;;1.00;;
37483;SDS011;23337;52.212;9.926;2023-03-14T00:13:54;1.30;;;0.70;;
37483;SDS011;23337;52.212;9.926;2023-03-14T00:16:20;2.73;;;1.10;;
37483;SDS011;23337;52.212;9.926;2023-03-14T00:18:47;3.27;;;1.00;;
37483;SDS011;23337;52.212;9.926;2023-03-14T00:21:13;1.30;;;0.90;;
37483;SDS011;23337;52.212;9.926;2023-03-14T00:23:39;2.23;;;1.00;;
37483;SDS011;23337;52.212;9.926;2023-03-14T00:26:07;1.47;;;0.80;;
37483;SDS011;23337;52.212;9.926;2023-03-14T00:28:33;3.57;;;1.20;;
37483;SDS011;23337;52.212;9.926;2023-03-14T00:31:01;5.20;;;1.27;;
37483;SDS011;23337;52.212;9.926;2023-03-14T00:33:27;2.97;;;0.90;;
37483;SDS011;23337;52.212;9.926;2023-03-14T00:38:19;1.67;;;1.07;;
37483;SDS011;23337;52.212;9.926;2023-03-14T00:40:46;2.40;;;1.27;;
37483;SDS011;23337;52.212;9.926;2023-03-14T00:43:12;3.83;;;1.10;;
37483;SDS011;23337;52.212;9.926;2023-03-14T00:45:38;3.17;;;1.00;;
37483;SDS011;23337;52.212;9.926;2023-03-14T00:48:03;3.23;;;0.90;;
37483;SDS011;23337;52.212;9.926;2023-03-14T00:50:29;2.73;;;1.07;;
37483;SDS011;23337;52.212;9.926;2023-03-14T00:52:55;0.77;;;0.60;;
37483;SDS011;23337;52.212;9.926;2023-03-14T00:55:21;1.97;;;0.90;;
37483;SDS011;23337;52.212;9.926;2023-03-14T00:57:47;3.07;;;0.87;;
37483;SDS011;23337;52.212;9.926;2023-03-14T01:00:13;3.13;;;1.20;;
37483;SDS011;23337;52.212;9.926;2023-03-14T01:02:39;2.40;;;0.93;;
37483;SDS011;23337;52.212;9.926;2023-03-14T01:05:05;2.90;;;0.80;;
37483;SDS011;23337;52.212;9.926;2023-03-14T01:07:32;1.60;;;1.23;;
37483;SDS011;23337;52.212;9.926;2023-03-14T01:09:58;3.43;;;0.90;;
37483;SDS011;23337;52.212;9.926;2023-03-14T01:12:24;3.60;;;1.47;;
37483;SDS011;23337;52.212;9.926;2023-03-14T01:14:50;1.23;;;0.80;;
37483;SDS011;23337;52.212;9.926;2023-03-14T01:17:16;1.97;;;0.80;;
37483;SDS011;23337;52.212;9.926;2023-03-14T01:19:42;3.33;;;1.03;;
37483;SDS011;23337;52.212;9.926;2023-03-14T01:22:08;1.70;;;0.97;;
37483;SDS011;23337;52.212;9.926;2023-03-14T01:24:34;4.30;;;1.10;;
37483;SDS011;23337;52.212;9.926;2023-03-14T01:27:02;2.00;;;0.80;;
37483;SDS011;23337;52.212;9.926;2023-03-14T01:29:28;3.03;;;0.80;;
37483;SDS011;23337;52.212;9.926;2023-03-14T01:31:54;5.80;;;1.27;;
37483;SDS011;23337;52.212;9.926;2023-03-14T01:34:20;3.20;;;0.70;;
37483;SDS011;23337;52.212;9.926;2023-03-14T01:36:46;2.20;;;0.80;;
37483;SDS011;23337;52.212;9.926;2023-03-14T01:39:12;1.67;;;1.30;;
37483;SDS011;23337;52.212;9.926;2023-03-14T01:41:38;1.60;;;0.80;;
37483;SDS011;23337;52.212;9.926;2023-03-14T01:44:04;4.27;;;0.90;;
37483;SDS011;23337;52.212;9.926;2023-03-14T01:46:37;2.17;;;1.00;;
37483;SDS011;23337;52.212;9.926;2023-03-14T01:51:31;2.83;;;0.70;;
37483;SDS011;23337;52.212;9.926;2023-03-14T01:54:01;1.27;;;0.60;;
37483;SDS011;23337;52.212;9.926;2023-03-14T01:56:28;1.70;;;0.73;;
37483;SDS011;23337;52.212;9.926;2023-03-14T01:58:54;2.03;;;0.63;;
37483;SDS011;23337;52.212;9.926;2023-03-14T02:01:21;1.23;;;0.60;;
37483;SDS011;23337;52.212;9.926;2023-03-14T02:03:56;1.43;;;0.80;;
37483;SDS011;23337;52.212;9.926;2023-03-14T02:06:24;2.00;;;0.70;;
37483;SDS011;23337;52.212;9.926;2023-03-14T02:08:51;2.73;;;0.80;;
37483;SDS011;23337;52.212;9.926;2023-03-14T02:11:18;0.97;;;0.77;;
37483;SDS011;23337;52.212;9.926;2023-03-14T02:13:44;1.83;;;0.53;;
37483;SDS011;23337;52.212;9.926;2023-03-14T02:16:10;1.40;;;0.83;;
37483;SDS011;23337;52.212;9.926;2023-03-14T02:18:37;2.50;;;0.80;;
37483;SDS011;23337;52.212;9.926;2023-03-14T02:21:05;2.53;;;0.63;;
37483;SDS011;23337;52.212;9.926;2023-03-14T02:26:22;1.27;;;0.60;;
37483;SDS011;23337;52.212;9.926;2023-03-14T02:28:50;2.73;;;0.80;;
37483;SDS011;23337;52.212;9.926;2023-03-14T02:31:18;2.20;;;1.00;;
37483;SDS011;23337;52.212;9.926;2023-03-14T02:33:44;2.53;;;1.07;;
37483;SDS011;23337;52.212;9.926;2023-03-14T02:36:11;3.10;;;0.70;;
37483;SDS011;23337;52.212;9.926;2023-03-14T02:41:16;3.37;;;0.80;;
37483;SDS011;23337;52.212;9.926;2023-03-14T02:43:42;3.40;;;0.70;;
37483;SDS011;23337;52.212;9.926;2023-03-14T02:46:10;1.60;;;0.70;;
37483;SDS011;23337;52.212;9.926;2023-03-14T02:48:48;2.77;;;1.20;;
37483;SDS011;23337;52.212;9.926;2023-03-14T02:51:16;3.13;;;0.83;;
37483;SDS011;23337;52.212;9.926;2023-03-14T02:53:42;3.30;;;0.77;;
37483;SDS011;23337;52.212;9.926;2023-03-14T02:56:08;2.53;;;0.80;;
37483;SDS011;23337;52.212;9.926;2023-03-14T02:58:34;3.07;;;0.77;;
37483;SDS011;23337;52.212;9.926;2023-03-14T03:01:00;1.07;;;0.60;;
37483;SDS011;23337;52.212;9.926;2023-03-14T03:03:26;3.93;;;0.97;;
37483;SDS011;23337;52.212;9.926;2023-03-14T03:05:53;3.57;;;1.00;;
37483;SDS011;23337;52.212;9.926;2023-03-14T03:08:20;1.93;;;1.13;;
37483;SDS011;23337;52.212;9.926;2023-03-14T03:10:46;1.33;;;0.77;;
37483;SDS011;23337;52.212;9.926;2023-03-14T03:13:12;2.17;;;0.90;;
37483;SDS011;23337;52.212;9.926;2023-03-14T03:15:38;3.23;;;0.93;;
37483;SDS011;23337;52.212;9.926;2023-03-14T03:18:04;2.73;;;0.97;;
37483;SDS011;23337;52.212;9.926;2023-03-14T03:20:30;2.37;;;0.90;;
37483;SDS011;23337;52.212;9.926;2023-03-14T03:22:56;3.30;;;1.00;;
37483;SDS011;23337;52.212;9.926;2023-03-14T03:25:23;2.53;;;0.60;;
37483;SDS011;23337;52.212;9.926;2023-03-14T03:27:49;1.60;;;0.67;;
37483;SDS011;23337;52.212;9.926;2023-03-14T03:30:15;3.03;;;1.10;;
37483;SDS011;23337;52.212;9.926;2023-03-14T03:32:41;2.97;;;0.80;;
37483;SDS011;23337;52.212;9.926;2023-03-14T03:35:07;3.67;;;1.10;;
37483;SDS011;23337;52.212;9.926;2023-03-14T03:37:33;1.17;;;0.63;;
37483;SDS011;23337;52.212;9.926;2023-03-14T03:39:59;4.50;;;0.70;;
37483;SDS011;23337;52.212;9.926;2023-03-14T03:42:26;3.60;;;0.87;;
37483;SDS011;23337;52.212;9.926;2023-03-14T03:44:52;1.50;;;0.50;;
37483;SDS011;23337;52.212;9.926;2023-03-14T03:47:18;2.13;;;0.80;;
37483;SDS011;23337;52.212;9.926;2023-03-14T03:49:44;3.23;;;0.80;;
37483;SDS011;23337;52.212;9.926;2023-03-14T03:52:10;2.47;;;0.83;;
37483;SDS011;23337;52.212;9.926;2023-03-14T03:54:36;3.33;;;0.90;;
37483;SDS011;23337;52.212;9.926;2023-03-14T03:57:02;3.40;;;1.67;;
37483;SDS011;23337;52.212;9.926;2023-03-14T03:59:28;4.40;;;1.67;;
37483;SDS011;23337;52.212;9.926;2023-03-14T04:01:54;2.10;;;0.83;;
37483;SDS011;23337;52.212;9.926;2023-03-14T04:04:20;2.83;;;0.63;;
37483;SDS011;23337;52.212;9.926;2023-03-14T04:06:45;2.73;;;0.57;;
37483;SDS011;23337;52.212;9.926;2023-03-14T04:09:12;1.47;;;0.50;;
37483;SDS011;23337;52.212;9.926;2023-03-14T04:11:38;1.60;;;0.57;;
37483;SDS011;23337;52.212;9.926;2023-03-14T04:14:04;1.13;;;0.30;;
37483;SDS011;23337;52.212;9.926;2023-03-14T04:16:30;3.13;;;0.60;;
37483;SDS011;23337;52.212;9.926;2023-03-14T04:18:56;0.30;;;0.20;;
37483;SDS011;23337;52.212;9.926;2023-03-14T04:21:22;3.03;;;0.30;;
37483;SDS011;23337;52.212;9.926;2023-03-14T04:23:49;1.80;;;0.20;;
37483;SDS011;23337;52.212;9.926;2023-03-14T04:26:15;0.70;;;0.17;;
37483;SDS011;23337;52.212;9.926;2023-03-14T04:28:41;0.83;;;0.73;;
37483;SDS011;23337;52.212;9.926;2023-03-14T04:31:07;0.37;;;0.20;;
37483;SDS011;23337;52.212;9.926;2023-03-14T04:33:33;0.33;;;0.13;;
37483;SDS011;23337;52.212;9.926;2023-03-14T04:36:01;0.17;;;0.10;;
37483;SDS011;23337;52.212;9.926;2023-03-14T04:38:26;0.10;;;0.10;;
37483;SDS011;23337;52.212;9.926;2023-03-14T04:40:52;0.63;;;0.23;;
37483;SDS011;23337;52.212;9.926;2023-03-14T04:43:18;0.70;;;0.13;;
37483;SDS011;23337;52.212;9.926;2023-03-14T04:45:44;0.97;;;0.13;;
37483;SDS011;23337;52.212;9.926;2023-03-14T04:48:10;1.80;;;0.57;;
37483;SDS011;23337;52.212;9.926;2023-03-14T04:50:37;0.30;;;0.10;;
37483;SDS011;23337;52.212;9.926;2023-03-14T04:53:03;0.93;;;0.20;;
37483;SDS011;23337;52.212;9.926;2023-03-14T04:55:29;0.50;;;0.40;;
37483;SDS011;23337;52.212;9.926;2023-03-14T04:57:57;1.77;;;0.30;;
37483;SDS011;23337;52.212;9.926;2023-03-14T05:00:23;2.53;;;0.30;;
37483;SDS011;23337;52.212;9.926;2023-03-14T05:02:49;2.40;;;0.43;;
37483;SDS011;23337;52.212;9.926;2023-03-14T05:05:15;2.83;;;0.73;;
37483;SDS011;23337;52.212;9.926;2023-03-14T05:07:41;5.27;;;0.50;;
37483;SDS011;23337;52.212;9.926;2023-03-14T05:10:07;2.20;;;0.70;;
37483;SDS011;23337;52.212;9.926;2023-03-14T05:12:33;1.53;;;0.50;;
37483;SDS011;23337;52.212;9.926;2023-03-14T05:14:59;4.27;;;0.60;;
37483;SDS011;23337;52.212;9.926;2023-03-14T05:17:25;4.67;;;0.60;;
37483;SDS011;23337;52.212;9.926;2023-03-14T05:19:50;1.43;;;0.60;;
37483;SDS011;23337;52.212;9.926;2023-03-14T05:22:16;4.17;;;0.57;;
37483;SDS011;23337;52.212;9.926;2023-03-14T05:24:42;4.93;;;1.00;;
37483;SDS011;23337;52.212;9.926;2023-03-14T05:27:08;3.73;;;0.70;;
37483;SDS011;23337;52.212;9.926;2023-03-14T05:29:34;2.70;;;1.03;;
37483;SDS011;23337;52.212;9.926;2023-03-14T05:32:00;3.13;;;0.70;;
37483;SDS011;23337;52.212;9.926;2023-03-14T05:34:26;3.40;;;0.60;;
37483;SDS011;23337;52.212;9.926;2023-03-14T05:36:52;0.97;;;0.53;;
37483;SDS011;23337;52.212;9.926;2023-03-14T05:39:18;3.63;;;0.87;;
37483;SDS011;23337;52.212;9.926;2023-03-14T05:41:44;2.37;;;0.40;;
37483;SDS011;23337;52.212;9.926;2023-03-14T05:44:10;1.73;;;0.50;;
37483;SDS011;23337;52.212;9.926;2023-03-14T05:46:36;3.27;;;0.60;;
37483;SDS011;23337;52.212;9.926;2023-03-14T05:49:02;1.23;;;0.40;;
37483;SDS011;23337;52.212;9.926;2023-03-14T05:51:28;1.67;;;0.77;;
37483;SDS011;23337;52.212;9.926;2023-03-14T05:53:54;0.97;;;0.40;;
37483;SDS011;23337;52.212;9.926;2023-03-14T05:56:19;2.90;;;0.60;;
37483;SDS011;23337;52.212;9.926;2023-03-14T05:58:45;2.77;;;0.47;;
37483;SDS011;23337;52.212;9.926;2023-03-14T06:01:11;2.00;;;0.30;;
37483;SDS011;23337;52.212;9.926;2023-03-14T06:03:37;2.90;;;0.40;;
37483;SDS011;23337;52.212;9.926;2023-03-14T06:06:03;4.10;;;0.63;;
37483;SDS011;23337;52.212;9.926;2023-03-14T06:08:29;4.50;;;0.53;;
37483;SDS011;23337;52.212;9.926;2023-03-14T06:10:56;1.80;;;0.40;;
37483;SDS011;23337;52.212;9.926;2023-03-14T06:13:22;4.47;;;0.50;;
37483;SDS011;23337;52.212;9.926;2023-03-14T06:15:48;1.50;;;0.63;;
37483;SDS011;23337;52.212;9.926;2023-03-14T06:18:14;2.37;;;0.50;;
37483;SDS011;23337;52.212;9.926;2023-03-14T06:20:40;1.80;;;0.40;;
37483;SDS011;23337;52.212;9.926;2023-03-14T06:23:06;1.23;;;0.40;;
37483;SDS011;23337;52.212;9.926;2023-03-14T06:25:33;2.53;;;0.50;;
37483;SDS011;23337;52.212;9.926;2023-03-14T06:27:59;2.10;;;0.87;;
37483;SDS011;23337;52.212;9.926;2023-03-14T06:30:25;2.53;;;0.57;;
37483;SDS011;23337;52.212;9.926;2023-03-14T06:32:51;1.43;;;0.47;;
37483;SDS011;23337;52.212;9.926;2023-03-14T06:35:17;1.37;;;0.40;;
37483;SDS011;23337;52.212;9.926;2023-03-14T06:37:42;2.03;;;0.70;;
37483;SDS011;23337;52.212;9.926;2023-03-14T06:40:09;1.07;;;0.40;;
37483;SDS011;23337;52.212;9.926;2023-03-14T06:42:35;1.07;;;0.50;;
37483;SDS011;23337;52.212;9.926;2023-03-14T06:45:02;2.30;;;0.53;;
37483;SDS011;23337;52.212;9.926;2023-03-14T06:47:28;1.67;;;0.43;;
37483;SDS011;23337;52.212;9.926;2023-03-14T06:49:54;2.20;;;0.40;;
37483;SDS011;23337;52.212;9.926;2023-03-14T06:52:20;1.73;;;0.37;;
37483;SDS011;23337;52.212;9.926;2023-03-14T06:54:45;1.40;;;0.37;;
37483;SDS011;23337;52.212;9.926;2023-03-14T06:57:11;0.83;;;0.40;;
37483;SDS011;23337;52.212;9.926;2023-03-14T06:59:37;2.33;;;0.27;;
37483;SDS011;23337;52.212;9.926;2023-03-14T07:02:03;1.53;;;0.60;;
37483;SDS011;23337;52.212;9.926;2023-03-14T07:04:29;2.73;;;0.37;;
37483;SDS011;23337;52.212;9.926;2023-03-14T07:06:55;1.33;;;0.60;;
37483;SDS011;23337;52.212;9.926;2023-03-14T07:09:21;2.27;;;0.67;;
37483;SDS011;23337;52.212;9.926;2023-03-14T07:11:47;3.13;;;0.47;;
37483;SDS011;23337;52.212;9.926;2023-03-14T07:14:13;1.90;;;0.37;;
37483;SDS011;23337;52.212;9.926;2023-03-14T07:16:39;1.97;;;0.70;;
37483;SDS011;23337;52.212;9.926;2023-03-14T07:19:05;3.07;;;0.30;;
37483;SDS011;23337;52.212;9.926;2023-03-14T07:21:31;2.17;;;0.40;;
37483;SDS011;23337;52.212;9.926;2023-03-14T07:23:59;1.73;;;0.43;;
37483;SDS011;23337;52.212;9.926;2023-03-14T07:26:25;3.20;;;0.70;;
37483;SDS011;23337;52.212;9.926;2023-03-14T07:28:51;0.90;;;0.53;;
37483;SDS011;23337;52.212;9.926;2023-03-14T07:31:17;4.70;;;1.93;;
37483;SDS011;23337;52.212;9.926;2023-03-14T07:33:43;2.60;;;0.60;;
37483;SDS011;23337;52.212;9.926;2023-03-14T07:36:09;2.13;;;0.73;;
37483;SDS011;23337;52.212;9.926;2023-03-14T07:38:35;3.67;;;0.70;;
37483;SDS011;23337;52.212;9.926;2023-03-14T07:41:02;3.20;;;0.60;;
37483;SDS011;23337;52.212;9.926;2023-03-14T07:43:28;1.27;;;0.70;;
37483;SDS011;23337;52.212;9.926;2023-03-14T07:45:54;1.43;;;0.50;;
37483;SDS011;23337;52.212;9.926;2023-03-14T07:48:20;3.03;;;1.10;;
37483;SDS011;23337;52.212;9.926;2023-03-14T07:50:49;2.27;;;0.80;;
37483;SDS011;23337;52.212;9.926;2023-03-14T07:53:15;3.73;;;0.93;;
37483;SDS011;23337;52.212;9.926;2023-03-14T07:55:41;5.30;;;0.90;;
37483;SDS011;23337;52.212;9.926;2023-03-14T07:58:07;4.50;;;0.70;;
37483;SDS011;23337;52.212;9.926;2023-03-14T08:00:33;3.33;;;0.60;;
37483;SDS011;23337;52.212;9.926;2023-03-14T08:02:59;4.07;;;0.70;;
37483;SDS011;23337;52.212;9.926;2023-03-14T08:05:25;3.03;;;0.90;;
37483;SDS011;23337;52.212;9.926;2023-03-14T08:07:51;2.87;;;0.47;;
37483;SDS011;23337;52.212;9.926;2023-03-14T08:10:17;2.97;;;0.67;;
37483;SDS011;23337;52.212;9.926;2023-03-14T08:12:46;2.73;;;0.60;;
37483;SDS011;23337;52.212;9.926;2023-03-14T08:15:12;4.53;;;0.90;;
37483;SDS011;23337;52.212;9.926;2023-03-14T08:17:38;3.57;;;0.63;;
37483;SDS011;23337;52.212;9.926;2023-03-14T08:20:04;4.43;;;1.17;;
37483;SDS011;23337;52.212;9.926;2023-03-14T08:22:35;2.87;;;0.50;;
37483;SDS011;23337;52.212;9.926;2023-03-14T08:25:01;1.57;;;0.40;;
37483;SDS011;23337;52.212;9.926;2023-03-14T08:27:27;3.90;;;1.33;;
37483;SDS011;23337;52.212;9.926;2023-03-14T08:29:53;3.20;;;1.23;;
37483;SDS011;23337;52.212;9.926;2023-03-14T08:32:19;3.83;;;0.67;;
37483;SDS011;23337;52.212;9.926;2023-03-14T08:34:45;2.80;;;0.80;;
37483;SDS011;23337;52.212;9.926;2023-03-14T08:37:11;1.80;;;0.87;;
37483;SDS011;23337;52.212;9.926;2023-03-14T08:39:37;4.13;;;1.07;;
37483;SDS011;23337;52.212;9.926;2023-03-14T08:42:03;2.63;;;1.10;;
37483;SDS011;23337;52.212;9.926;2023-03-14T08:44:29;2.77;;;0.90;;
37483;SDS011;23337;52.212;9.926;2023-03-14T08:46:55;1.40;;;0.60;;
37483;SDS011;23337;52.212;9.926;2023-03-14T08:49:21;4.53;;;0.63;;
37483;SDS011;23337;52.212;9.926;2023-03-14T08:51:47;2.57;;;0.77;;
37483;SDS011;23337;52.212;9.926;2023-03-14T08:54:13;2.40;;;0.90;;
37483;SDS011;23337;52.212;9.926;2023-03-14T08:56:39;1.20;;;0.87;;
37483;SDS011;23337;52.212;9.926;2023-03-14T08:59:05;3.83;;;0.60;;
37483;SDS011;23337;52.212;9.926;2023-03-14T09:01:33;1.60;;;0.53;;
37483;SDS011;23337;52.212;9.926;2023-03-14T09:03:59;2.33;;;0.60;;
37483;SDS011;23337;52.212;9.926;2023-03-14T09:06:25;1.47;;;0.50;;
37483;SDS011;23337;52.212;9.926;2023-03-14T09:08:51;1.30;;;0.50;;
37483;SDS011;23337;52.212;9.926;2023-03-14T09:11:17;2.00;;;0.80;;
37483;SDS011;23337;52.212;9.926;2023-03-14T09:13:43;1.03;;;0.43;;
37483;SDS011;23337;52.212;9.926;2023-03-14T09:16:09;0.80;;;0.30;;
37483;SDS011;23337;52.212;9.926;2023-03-14T09:18:35;3.23;;;0.40;;
37483;SDS011;23337;52.212;9.926;2023-03-14T09:21:02;1.47;;;0.33;;
37483;SDS011;23337;52.212;9.926;2023-03-14T09:23:28;2.23;;;0.50;;
37483;SDS011;23337;52.212;9.926;2023-03-14T09:25:54;0.93;;;0.30;;
37483;SDS011;23337;52.212;9.926;2023-03-14T09:28:21;2.93;;;0.80;;
37483;SDS011;23337;52.212;9.926;2023-03-14T09:30:47;0.90;;;0.40;;
37483;SDS011;23337;52.212;9.926;2023-03-14T09:33:13;1.43;;;0.40;;
37483;SDS011;23337;52.212;9.926;2023-03-14T09:35:38;1.43;;;0.20;;
37483;SDS011;23337;52.212;9.926;2023-03-14T09:38:04;0.93;;;0.60;;
37483;SDS011;23337;52.212;9.926;2023-03-14T09:40:31;1.57;;;0.40;;
37483;SDS011;23337;52.212;9.926;2023-03-14T09:42:59;0.20;;;0.10;;
37483;SDS011;23337;52.212;9.926;2023-03-14T09:45:26;1.50;;;0.30;;
37483;SDS011;23337;52.212;9.926;2023-03-14T09:47:53;0.97;;;0.30;;
37483;SDS011;23337;52.212;9.926;2023-03-14T09:50:20;1.10;;;0.30;;
37483;SDS011;23337;52.212;9.926;2023-03-14T09:52:48;1.03;;;0.30;;
37483;SDS011;23337;52.212;9.926;2023-03-14T09:55:16;2.13;;;0.27;;
37483;SDS011;23337;52.212;9.926;2023-03-14T09:57:42;0.87;;;0.20;;
37483;SDS011;23337;52.212;9.926;2023-03-14T10:00:20;1.50;;;0.20;;
37483;SDS011;23337;52.212;9.926;2023-03-14T10:02:50;1.03;;;0.20;;
37483;SDS011;23337;52.212;9.926;2023-03-14T10:05:17;0.70;;;0.30;;
37483;SDS011;23337;52.212;9.926;2023-03-14T10:07:43;0.53;;;0.33;;
37483;SDS011;23337;52.212;9.926;2023-03-14T10:12:39;0.47;;;0.27;;
37483;SDS011;23337;52.212;9.926;2023-03-14T10:15:07;0.77;;;0.20;;
37483;SDS011;23337;52.212;9.926;2023-03-14T10:20:05;0.20;;;0.13;;
37483;SDS011;23337;52.212;9.926;2023-03-14T10:22:32;1.13;;;0.20;;
37483;SDS011;23337;52.212;9.926;2023-03-14T10:25:02;0.40;;;0.20;;
37483;SDS011;23337;52.212;9.926;2023-03-14T10:27:30;0.53;;;0.30;;
37483;SDS011;23337;52.212;9.926;2023-03-14T10:30:00;0.10;;;0.10;;
37483;SDS011;23337;52.212;9.926;2023-03-14T10:32:34;0.40;;;0.10;;
37483;SDS011;23337;52.212;9.926;2023-03-14T10:35:34;0.30;;;0.10;;
37483;SDS011;23337;52.212;9.926;2023-03-14T10:37:53;0.33;;;0.20;;
37483;SDS011;23337;52.212;9.926;2023-03-14T10:40:24;0.33;;;0.20;;
37483;SDS011;23337;52.212;9.926;2023-03-14T10:42:51;0.30;;;0.10;;
37483;SDS011;23337;52.212;9.926;2023-03-14T10:47:59;1.00;;;0.10;;
37483;SDS011;23337;52.212;9.926;2023-03-14T10:50:32;0.30;;;0.17;;
37483;SDS011;23337;52.212;9.926;2023-03-14T10:53:00;0.67;;;0.20;;
37483;SDS011;23337;52.212;9.926;2023-03-14T10:55:40;0.80;;;0.20;;
37483;SDS011;23337;52.212;9.926;2023-03-14T10:58:17;0.30;;;0.10;;
37483;SDS011;23337;52.212;9.926;2023-03-14T11:00:43;0.10;;;0.10;;
37483;SDS011;23337;52.212;9.926;2023-03-14T11:03:12;0.10;;;0.10;;
37483;SDS011;23337;52.212;9.926;2023-03-14T11:08:09;0.50;;;0.10;;
37483;SDS011;23337;52.212;9.926;2023-03-14T11:10:40;2.20;;;0.30;;
37483;SDS011;23337;52.212;9.926;2023-03-14T11:13:25;0.70;;;0.10;;
37483;SDS011;23337;52.212;9.926;2023-03-14T11:16:01;0.43;;;0.20;;
37483;SDS011;23337;52.212;9.926;2023-03-14T11:18:46;0.10;;;0.10;;
37483;SDS011;23337;52.212;9.926;2023-03-14T11:21:26;0.20;;;0.10;;
37483;SDS011;23337;52.212;9.926;2023-03-14T11:31:36;0.27;;;0.20;;
37483;SDS011;23337;52.212;9.926;2023-03-14T11:34:07;0.20;;;0.20;;
37483;SDS011;23337;52.212;9.926;2023-03-14T11:36:40;0.90;;;0.50;;
37483;SDS011;23337;52.212;9.926;2023-03-14T11:39:08;0.30;;;0.27;;
37483;SDS011;23337;52.212;9.926;2023-03-14T11:41:39;0.20;;;0.17;;
37483;SDS011;23337;52.212;9.926;2023-03-14T11:46:52;7.07;;;1.07;;
37483;SDS011;23337;52.212;9.926;2023-03-14T11:49:38;1.97;;;0.60;;
37483;SDS011;23337;52.212;9.926;2023-03-14T11:52:08;3.60;;;0.47;;
37483;SDS011;23337;52.212;9.926;2023-03-14T11:54:49;0.97;;;0.23;;
37483;SDS011;23337;52.212;9.926;2023-03-14T11:57:16;0.83;;;0.13;;
37483;SDS011;23337;52.212;9.926;2023-03-14T12:00:00;0.30;;;0.10;;
37483;SDS011;23337;52.212;9.926;2023-03-14T12:05:16;0.10;;;0.10;;
37483;SDS011;23337;52.212;9.926;2023-03-14T12:10:29;1.00;;;0.30;;
37483;SDS011;23337;52.212;9.926;2023-03-14T12:12:55;0.97;;;0.40;;
37483;SDS011;23337;52.212;9.926;2023-03-14T12:15:21;1.30;;;0.50;;
37483;SDS011;23337;52.212;9.926;2023-03-14T12:17:53;0.93;;;0.60;;
37483;SDS011;23337;52.212;9.926;2023-03-14T12:20:21;0.83;;;0.80;;
37483;SDS011;23337;52.212;9.926;2023-03-14T12:22:48;1.03;;;0.70;;
37483;SDS011;23337;52.212;9.926;2023-03-14T12:25:19;0.70;;;0.70;;
37483;SDS011;23337;52.212;9.926;2023-03-14T12:30:25;1.33;;;0.10;;
37483;SDS011;23337;52.212;9.926;2023-03-14T12:35:36;0.50;;;0.10;;
37483;SDS011;23337;52.212;9.926;2023-03-14T12:38:03;0.10;;;0.10;;
37483;SDS011;23337;52.212;9.926;2023-03-14T12:40:31;0.47;;;0.10;;
37483;SDS011;23337;52.212;9.926;2023-03-14T12:43:02;0.73;;;0.30;;
37483;SDS011;23337;52.212;9.926;2023-03-14T12:45:33;0.20;;;0.20;;
37483;SDS011;23337;52.212;9.926;2023-03-14T12:48:01;0.40;;;0.30;;
37483;SDS011;23337;52.212;9.926;2023-03-14T12:50:31;0.60;;;0.23;;
37483;SDS011;23337;52.212;9.926;2023-03-14T12:55:29;0.80;;;0.30;;
37483;SDS011;23337;52.212;9.926;2023-03-14T12:58:07;0.73;;;0.20;;
37483;SDS011;23337;52.212;9.926;2023-03-14T13:00:38;0.93;;;0.20;;
37483;SDS011;23337;52.212;9.926;2023-03-14T13:05:57;0.50;;;0.23;;
37483;SDS011;23337;52.212;9.926;2023-03-14T13:08:42;1.60;;;0.60;;
37483;SDS011;23337;52.212;9.926;2023-03-14T13:11:20;0.33;;;0.20;;
37483;SDS011;23337;52.212;9.926;2023-03-14T13:13:52;0.60;;;0.30;;
37483;SDS011;23337;52.212;9.926;2023-03-14T13:16:19;2.07;;;0.70;;
37483;SDS011;23337;52.212;9.926;2023-03-14T13:18:47;1.70;;;0.40;;
37483;SDS011;23337;52.212;9.926;2023-03-14T13:21:17;1.50;;;0.53;;
37483;SDS011;23337;52.212;9.926;2023-03-14T13:24:01;0.30;;;0.20;;
37483;SDS011;23337;52.212;9.926;2023-03-14T13:26:37;0.40;;;0.30;;
37483;SDS011;23337;52.212;9.926;2023-03-14T13:31:39;2.13;;;0.40;;
37483;SDS011;23337;52.212;9.926;2023-03-14T13:34:09;3.60;;;0.87;;
37483;SDS011;23337;52.212;9.926;2023-03-14T13:36:36;1.30;;;0.50;;
37483;SDS011;23337;52.212;9.926;2023-03-14T13:39:02;2.13;;;0.60;;
37483;SDS011;23337;52.212;9.926;2023-03-14T13:41:29;2.90;;;0.63;;
37483;SDS011;23337;52.212;9.926;2023-03-14T13:44:01;2.90;;;0.70;;
37483;SDS011;23337;52.212;9.926;2023-03-14T13:46:28;9.30;;;1.13;;
37483;SDS011;23337;52.212;9.926;2023-03-14T13:48:57;7.17;;;1.37;;
37483;SDS011;23337;52.212;9.926;2023-03-14T13:51:24;5.90;;;1.77;;
37483;SDS011;23337;52.212;9.926;2023-03-14T13:53:54;7.00;;;1.10;;
37483;SDS011;23337;52.212;9.926;2023-03-14T13:56:21;6.17;;;1.10;;
37483;SDS011;23337;52.212;9.926;2023-03-14T13:58:48;6.70;;;1.20;;
37483;SDS011;23337;52.212;9.926;2023-03-14T14:01:15;7.90;;;1.30;;
37483;SDS011;23337;52.212;9.926;2023-03-14T14:03:43;4.80;;;2.70;;
37483;SDS011;23337;52.212;9.926;2023-03-14T14:06:11;6.33;;;2.20;;
37483;SDS011;23337;52.212;9.926;2023-03-14T14:08:42;7.07;;;1.07;;
37483;SDS011;23337;52.212;9.926;2023-03-14T14:11:08;3.77;;;1.00;;
37483;SDS011;23337;52.212;9.926;2023-03-14T14:13:36;6.07;;;1.83;;
37483;SDS011;23337;52.212;9.926;2023-03-14T14:16:02;2.83;;;0.90;;
37483;SDS011;23337;52.212;9.926;2023-03-14T14:18:28;3.43;;;0.70;;
37483;SDS011;23337;52.212;9.926;2023-03-14T14:20:56;4.53;;;1.30;;
37483;SDS011;23337;52.212;9.926;2023-03-14T14:23:24;5.90;;;1.67;;
37483;SDS011;23337;52.212;9.926;2023-03-14T14:25:53;5.57;;;1.10;;
37483;SDS011;23337;52.212;9.926;2023-03-14T14:28:32;2.60;;;1.10;;
37483;SDS011;23337;52.212;9.926;2023-03-14T14:31:03;5.20;;;1.33;;
37483;SDS011;23337;52.212;9.926;2023-03-14T14:33:30;4.33;;;1.50;;
37483;SDS011;23337;52.212;9.926;2023-03-14T14:36:03;9.37;;;1.53;;
37483;SDS011;23337;52.212;9.926;2023-03-14T14:38:29;9.67;;;3.03;;
37483;SDS011;23337;52.212;9.926;2023-03-14T14:40:58;10.50;;;1.90;;
37483;SDS011;23337;52.212;9.926;2023-03-14T14:43:26;9.50;;;2.20;;
37483;SDS011;23337;52.212;9.926;2023-03-14T14:45:53;9.73;;;2.07;;
37483;SDS011;23337;52.212;9.926;2023-03-14T14:48:22;7.30;;;2.13;;
37483;SDS011;23337;52.212;9.926;2023-03-14T14:50:55;6.93;;;2.13;;
37483;SDS011;23337;52.212;9.926;2023-03-14T14:53:29;9.00;;;2.53;;
37483;SDS011;23337;52.212;9.926;2023-03-14T14:55:59;9.37;;;1.87;;
37483;SDS011;23337;52.212;9.926;2023-03-14T14:58:35;12.90;;;1.90;;
37483;SDS011;23337;52.212;9.926;2023-03-14T15:03:38;13.63;;;3.67;;
37483;SDS011;23337;52.212;9.926;2023-03-14T15:06:04;6.53;;;1.33;;
37483;SDS011;23337;52.212;9.926;2023-03-14T15:08:30;9.47;;;2.30;;
37483;SDS011;23337;52.212;9.926;2023-03-14T15:10:56;7.67;;;1.30;;
37483;SDS011;23337;52.212;9.926;2023-03-14T15:13:22;10.47;;;2.60;;
37483;SDS011;23337;52.212;9.926;2023-03-14T15:15:51;10.70;;;2.27;;
37483;SDS011;23337;52.212;9.926;2023-03-14T15:18:20;15.27;;;2.37;;
37483;SDS011;23337;52.212;9.926;2023-03-14T15:20:47;10.00;;;1.80;;
37483;SDS011;23337;52.212;9.926;2023-03-14T15:23:14;9.53;;;2.47;;
37483;SDS011;23337;52.212;9.926;2023-03-14T15:25:40;10.13;;;1.73;;
37483;SDS011;23337;52.212;9.926;2023-03-14T15:28:17;11.87;;;2.30;;
37483;SDS011;23337;52.212;9.926;2023-03-14T15:30:50;7.83;;;1.63;;
37483;SDS011;23337;52.212;9.926;2023-03-14T15:33:17;9.53;;;2.03;;
37483;SDS011;23337;52.212;9.926;2023-03-14T15:35:44;5.40;;;1.40;;
37483;SDS011;23337;52.212;9.926;2023-03-14T15:38:11;7.30;;;1.70;;
37483;SDS011;23337;52.212;9.926;2023-03-14T15:40:37;5.27;;;1.10;;
37483;SDS011;23337;52.212;9.926;2023-03-14T15:43:03;7.53;;;1.83;;